sensor_id;sensor_type;location;lat;lon;timestamp;P1;durP1;ratioP1;P2;durP2;ratioP2
60318;SDS011;46163;52.306;5.634;2023-07-02T00:01:43;5.72;;;1.90;;
60318;SDS011;46163;52.306;5.634;2023-07-02T00:04:09;1.75;;;1.65;;
60318;SDS011;46163;52.306;5.634;2023-07-02T00:06:38;2.72;;;2.10;;
60318;SDS011;46163;52.306;5.634;2023-07-02T00:09:09;2.55;;;1.92;;
60318;SDS011;46163;52.306;5.634;2023-07-02T00:11:38;5.70;;;1.90;;
60318;SDS011;46163;52.306;5.634;2023-07-02T00:14:05;2.45;;;2.00;;
60318;SDS011;46163;52.306;5.634;2023-07-02T00:16:32;2.63;;;1.90;;
60318;SDS011;46163;52.306;5.634;2023-07-02T00:18:58;5.97;;;2.30;;
60318;SDS011;46163;52.306;5.634;2023-07-02T00:21:25;1.87;;;1.70;;
60318;SDS011;46163;52.306;5.634;2023-07-02T00:23:55;2.72;;;1.88;;
60318;SDS011;46163;52.306;5.634;2023-07-02T00:26:25;5.22;;;2.20;;
60318;SDS011;46163;52.306;5.634;2023-07-02T00:35:05;4.38;;;2.05;;
60318;SDS011;46163;52.306;5.634;2023-07-02T00:37:30;6.38;;;2.88;;
60318;SDS011;46163;52.306;5.634;2023-07-02T00:39:56;6.05;;;3.35;;
60318;SDS011;46163;52.306;5.634;2023-07-02T00:42:22;7.15;;;3.08;;
60318;SDS011;46163;52.306;5.634;2023-07-02T00:44:48;4.50;;;2.60;;
60318;SDS011;46163;52.306;5.634;2023-07-02T00:47:16;6.93;;;3.05;;
60318;SDS011;46163;52.306;5.634;2023-07-02T00:49:41;8.40;;;3.33;;
60318;SDS011;46163;52.306;5.634;2023-07-02T00:52:07;9.70;;;3.40;;
60318;SDS011;46163;52.306;5.634;2023-07-02T00:54:33;6.85;;;3.33;;
60318;SDS011;46163;52.306;5.634;2023-07-02T00:56:59;10.85;;;3.60;;
60318;SDS011;46163;52.306;5.634;2023-07-02T00:59:29;5.88;;;2.88;;
60318;SDS011;46163;52.306;5.634;2023-07-02T01:01:56;7.78;;;3.85;;
60318;SDS011;46163;52.306;5.634;2023-07-02T01:04:22;9.43;;;3.38;;
60318;SDS011;46163;52.306;5.634;2023-07-02T01:06:52;8.23;;;3.63;;
60318;SDS011;46163;52.306;5.634;2023-07-02T01:09:22;13.95;;;3.88;;
60318;SDS011;46163;52.306;5.634;2023-07-02T01:11:53;10.95;;;4.18;;
60318;SDS011;46163;52.306;5.634;2023-07-02T01:14:44;11.50;;;4.10;;
60318;SDS011;46163;52.306;5.634;2023-07-02T01:17:15;9.52;;;4.60;;
60318;SDS011;46163;52.306;5.634;2023-07-02T01:19:50;9.68;;;3.72;;
60318;SDS011;46163;52.306;5.634;2023-07-02T01:22:19;9.23;;;3.95;;
60318;SDS011;46163;52.306;5.634;2023-07-02T01:24:46;10.25;;;4.45;;
60318;SDS011;46163;52.306;5.634;2023-07-02T01:27:14;10.93;;;3.70;;
60318;SDS011;46163;52.306;5.634;2023-07-02T01:29:43;6.63;;;3.72;;
60318;SDS011;46163;52.306;5.634;2023-07-02T01:32:12;11.73;;;4.22;;
60318;SDS011;46163;52.306;5.634;2023-07-02T01:34:39;12.38;;;4.63;;
60318;SDS011;46163;52.306;5.634;2023-07-02T01:37:04;9.85;;;4.45;;
60318;SDS011;46163;52.306;5.634;2023-07-02T01:39:30;9.27;;;4.10;;
60318;SDS011;46163;52.306;5.634;2023-07-02T01:42:18;10.98;;;4.50;;
60318;SDS011;46163;52.306;5.634;2023-07-02T01:44:46;11.90;;;4.30;;
60318;SDS011;46163;52.306;5.634;2023-07-02T01:47:12;9.98;;;4.55;;
60318;SDS011;46163;52.306;5.634;2023-07-02T01:49:38;8.82;;;3.88;;
60318;SDS011;46163;52.306;5.634;2023-07-02T01:52:05;7.55;;;3.95;;
60318;SDS011;46163;52.306;5.634;2023-07-02T01:54:31;9.85;;;4.50;;
60318;SDS011;46163;52.306;5.634;2023-07-02T01:56:58;10.68;;;4.35;;
60318;SDS011;46163;52.306;5.634;2023-07-02T01:59:24;9.32;;;4.57;;
60318;SDS011;46163;52.306;5.634;2023-07-02T02:01:50;10.10;;;4.55;;
60318;SDS011;46163;52.306;5.634;2023-07-02T02:04:16;10.60;;;4.47;;
60318;SDS011;46163;52.306;5.634;2023-07-02T02:06:42;8.88;;;4.38;;
60318;SDS011;46163;52.306;5.634;2023-07-02T02:09:07;9.82;;;4.25;;
60318;SDS011;46163;52.306;5.634;2023-07-02T02:11:34;9.05;;;4.88;;
60318;SDS011;46163;52.306;5.634;2023-07-02T02:14:03;10.05;;;4.22;;
60318;SDS011;46163;52.306;5.634;2023-07-02T02:16:28;15.63;;;4.88;;
60318;SDS011;46163;52.306;5.634;2023-07-02T02:18:54;10.13;;;4.55;;
60318;SDS011;46163;52.306;5.634;2023-07-02T02:21:20;12.10;;;5.20;;
60318;SDS011;46163;52.306;5.634;2023-07-02T02:23:46;10.63;;;5.30;;
60318;SDS011;46163;52.306;5.634;2023-07-02T02:26:13;10.45;;;4.63;;
60318;SDS011;46163;52.306;5.634;2023-07-02T02:28:39;9.40;;;4.38;;
60318;SDS011;46163;52.306;5.634;2023-07-02T02:31:04;10.65;;;4.72;;
60318;SDS011;46163;52.306;5.634;2023-07-02T02:33:32;8.65;;;4.40;;
60318;SDS011;46163;52.306;5.634;2023-07-02T02:35:58;13.13;;;5.28;;
60318;SDS011;46163;52.306;5.634;2023-07-02T02:38:24;14.65;;;4.97;;
60318;SDS011;46163;52.306;5.634;2023-07-02T02:40:49;12.50;;;5.22;;
60318;SDS011;46163;52.306;5.634;2023-07-02T02:43:15;9.90;;;4.35;;
60318;SDS011;46163;52.306;5.634;2023-07-02T02:45:43;13.25;;;4.50;;
60318;SDS011;46163;52.306;5.634;2023-07-02T02:48:09;10.95;;;4.72;;
60318;SDS011;46163;52.306;5.634;2023-07-02T02:50:35;13.18;;;5.22;;
60318;SDS011;46163;52.306;5.634;2023-07-02T02:53:03;15.25;;;4.93;;
60318;SDS011;46163;52.306;5.634;2023-07-02T02:55:29;11.18;;;4.45;;
60318;SDS011;46163;52.306;5.634;2023-07-02T02:57:54;11.85;;;4.93;;
60318;SDS011;46163;52.306;5.634;2023-07-02T03:00:19;8.43;;;4.57;;
60318;SDS011;46163;52.306;5.634;2023-07-02T03:02:45;10.00;;;4.78;;
60318;SDS011;46163;52.306;5.634;2023-07-02T03:05:10;9.68;;;4.82;;
60318;SDS011;46163;52.306;5.634;2023-07-02T03:07:37;10.00;;;4.60;;
60318;SDS011;46163;52.306;5.634;2023-07-02T03:10:03;13.45;;;4.53;;
60318;SDS011;46163;52.306;5.634;2023-07-02T03:12:29;11.82;;;4.10;;
60318;SDS011;46163;52.306;5.634;2023-07-02T03:14:54;10.57;;;5.00;;
60318;SDS011;46163;52.306;5.634;2023-07-02T03:17:23;9.93;;;5.10;;
60318;SDS011;46163;52.306;5.634;2023-07-02T03:19:48;13.25;;;4.80;;
60318;SDS011;46163;52.306;5.634;2023-07-02T03:22:14;10.27;;;4.88;;
60318;SDS011;46163;52.306;5.634;2023-07-02T03:24:40;9.93;;;5.13;;
60318;SDS011;46163;52.306;5.634;2023-07-02T03:27:05;12.73;;;4.75;;
60318;SDS011;46163;52.306;5.634;2023-07-02T03:29:31;15.15;;;4.95;;
60318;SDS011;46163;52.306;5.634;2023-07-02T03:31:59;13.73;;;5.60;;
60318;SDS011;46163;52.306;5.634;2023-07-02T03:34:24;10.57;;;5.28;;
60318;SDS011;46163;52.306;5.634;2023-07-02T03:36:50;11.15;;;5.28;;
60318;SDS011;46163;52.306;5.634;2023-07-02T03:39:16;15.63;;;5.13;;
60318;SDS011;46163;52.306;5.634;2023-07-02T03:41:42;10.13;;;4.57;;
60318;SDS011;46163;52.306;5.634;2023-07-02T03:44:08;9.20;;;4.65;;
60318;SDS011;46163;52.306;5.634;2023-07-02T03:46:33;8.68;;;5.13;;
60318;SDS011;46163;52.306;5.634;2023-07-02T03:48:59;10.35;;;4.78;;
60318;SDS011;46163;52.306;5.634;2023-07-02T03:51:25;11.52;;;5.13;;
60318;SDS011;46163;52.306;5.634;2023-07-02T03:53:50;12.73;;;5.20;;
60318;SDS011;46163;52.306;5.634;2023-07-02T03:56:16;11.02;;;5.18;;
60318;SDS011;46163;52.306;5.634;2023-07-02T03:58:42;11.60;;;4.80;;
60318;SDS011;46163;52.306;5.634;2023-07-02T04:01:11;9.82;;;4.47;;
60318;SDS011;46163;52.306;5.634;2023-07-02T04:03:38;13.55;;;5.45;;
60318;SDS011;46163;52.306;5.634;2023-07-02T04:06:04;13.20;;;5.80;;
60318;SDS011;46163;52.306;5.634;2023-07-02T04:08:32;17.95;;;5.70;;
60318;SDS011;46163;52.306;5.634;2023-07-02T04:10:59;15.43;;;5.18;;
60318;SDS011;46163;52.306;5.634;2023-07-02T04:13:24;11.55;;;5.07;;
60318;SDS011;46163;52.306;5.634;2023-07-02T04:15:50;16.73;;;5.75;;
60318;SDS011;46163;52.306;5.634;2023-07-02T04:18:16;15.13;;;5.57;;
60318;SDS011;46163;52.306;5.634;2023-07-02T04:20:41;14.90;;;5.43;;
60318;SDS011;46163;52.306;5.634;2023-07-02T04:23:06;10.88;;;4.85;;
60318;SDS011;46163;52.306;5.634;2023-07-02T04:25:32;11.20;;;5.07;;
60318;SDS011;46163;52.306;5.634;2023-07-02T04:27:58;10.80;;;5.30;;
60318;SDS011;46163;52.306;5.634;2023-07-02T04:30:24;9.35;;;5.03;;
60318;SDS011;46163;52.306;5.634;2023-07-02T04:32:50;9.07;;;4.50;;
60318;SDS011;46163;52.306;5.634;2023-07-02T04:35:17;10.80;;;5.00;;
60318;SDS011;46163;52.306;5.634;2023-07-02T04:37:42;12.90;;;5.13;;
60318;SDS011;46163;52.306;5.634;2023-07-02T04:40:09;9.65;;;4.78;;
60318;SDS011;46163;52.306;5.634;2023-07-02T04:42:38;10.75;;;5.05;;
60318;SDS011;46163;52.306;5.634;2023-07-02T04:45:06;11.35;;;4.50;;
60318;SDS011;46163;52.306;5.634;2023-07-02T04:47:33;11.93;;;4.68;;
60318;SDS011;46163;52.306;5.634;2023-07-02T04:49:59;10.45;;;4.55;;
60318;SDS011;46163;52.306;5.634;2023-07-02T04:52:25;14.68;;;5.43;;
60318;SDS011;46163;52.306;5.634;2023-07-02T04:54:51;15.23;;;5.68;;
60318;SDS011;46163;52.306;5.634;2023-07-02T04:57:18;17.05;;;5.38;;
60318;SDS011;46163;52.306;5.634;2023-07-02T04:59:44;11.48;;;4.97;;
60318;SDS011;46163;52.306;5.634;2023-07-02T05:02:10;12.02;;;5.25;;
60318;SDS011;46163;52.306;5.634;2023-07-02T05:04:36;14.27;;;5.40;;
60318;SDS011;46163;52.306;5.634;2023-07-02T05:07:04;11.98;;;5.25;;
60318;SDS011;46163;52.306;5.634;2023-07-02T05:09:31;18.70;;;6.28;;
60318;SDS011;46163;52.306;5.634;2023-07-02T05:11:57;15.80;;;6.20;;
60318;SDS011;46163;52.306;5.634;2023-07-02T05:14:22;15.75;;;5.75;;
60318;SDS011;46163;52.306;5.634;2023-07-02T05:16:50;16.27;;;5.88;;
60318;SDS011;46163;52.306;5.634;2023-07-02T05:19:15;9.13;;;4.80;;
60318;SDS011;46163;52.306;5.634;2023-07-02T05:21:41;11.82;;;4.75;;
60318;SDS011;46163;52.306;5.634;2023-07-02T05:24:07;15.60;;;5.20;;
60318;SDS011;46163;52.306;5.634;2023-07-02T05:26:33;17.55;;;5.65;;
60318;SDS011;46163;52.306;5.634;2023-07-02T05:29:00;13.20;;;4.97;;
60318;SDS011;46163;52.306;5.634;2023-07-02T05:31:26;14.57;;;5.10;;
60318;SDS011;46163;52.306;5.634;2023-07-02T05:33:52;12.77;;;5.20;;
60318;SDS011;46163;52.306;5.634;2023-07-02T05:36:18;15.53;;;5.37;;
60318;SDS011;46163;52.306;5.634;2023-07-02T05:38:44;17.88;;;5.47;;
60318;SDS011;46163;52.306;5.634;2023-07-02T05:41:17;15.60;;;5.97;;
60318;SDS011;46163;52.306;5.634;2023-07-02T05:43:48;12.77;;;5.72;;
60318;SDS011;46163;52.306;5.634;2023-07-02T05:46:16;11.52;;;4.85;;
60318;SDS011;46163;52.306;5.634;2023-07-02T05:48:42;17.45;;;5.63;;
60318;SDS011;46163;52.306;5.634;2023-07-02T05:51:09;13.77;;;5.30;;
60318;SDS011;46163;52.306;5.634;2023-07-02T05:53:37;12.82;;;4.97;;
60318;SDS011;46163;52.306;5.634;2023-07-02T05:56:03;13.02;;;5.05;;
60318;SDS011;46163;52.306;5.634;2023-07-02T05:58:28;13.00;;;5.07;;
60318;SDS011;46163;52.306;5.634;2023-07-02T06:00:55;13.75;;;4.72;;
60318;SDS011;46163;52.306;5.634;2023-07-02T06:03:20;16.60;;;5.75;;
60318;SDS011;46163;52.306;5.634;2023-07-02T06:05:48;14.40;;;5.25;;
60318;SDS011;46163;52.306;5.634;2023-07-02T06:08:15;15.18;;;6.00;;
60318;SDS011;46163;52.306;5.634;2023-07-02T06:10:41;17.08;;;5.22;;
60318;SDS011;46163;52.306;5.634;2023-07-02T06:13:07;12.70;;;5.18;;
60318;SDS011;46163;52.306;5.634;2023-07-02T06:15:33;11.73;;;5.15;;
60318;SDS011;46163;52.306;5.634;2023-07-02T06:17:59;14.48;;;4.65;;
60318;SDS011;46163;52.306;5.634;2023-07-02T06:20:24;13.27;;;4.93;;
60318;SDS011;46163;52.306;5.634;2023-07-02T06:22:50;10.18;;;4.45;;
60318;SDS011;46163;52.306;5.634;2023-07-02T06:25:15;16.23;;;4.60;;
60318;SDS011;46163;52.306;5.634;2023-07-02T06:27:43;14.80;;;4.90;;
60318;SDS011;46163;52.306;5.634;2023-07-02T06:30:08;13.63;;;5.00;;
60318;SDS011;46163;52.306;5.634;2023-07-02T06:32:34;11.90;;;4.53;;
60318;SDS011;46163;52.306;5.634;2023-07-02T06:35:00;10.85;;;4.32;;
60318;SDS011;46163;52.306;5.634;2023-07-02T06:37:28;9.40;;;4.30;;
60318;SDS011;46163;52.306;5.634;2023-07-02T06:39:53;13.50;;;4.63;;
60318;SDS011;46163;52.306;5.634;2023-07-02T06:42:19;13.48;;;4.72;;
60318;SDS011;46163;52.306;5.634;2023-07-02T06:44:44;9.60;;;4.32;;
60318;SDS011;46163;52.306;5.634;2023-07-02T06:47:10;9.30;;;4.45;;
60318;SDS011;46163;52.306;5.634;2023-07-02T06:49:36;14.50;;;4.15;;
60318;SDS011;46163;52.306;5.634;2023-07-02T06:52:02;9.50;;;4.13;;
60318;SDS011;46163;52.306;5.634;2023-07-02T06:54:27;8.05;;;3.40;;
60318;SDS011;46163;52.306;5.634;2023-07-02T06:56:53;10.32;;;3.88;;
60318;SDS011;46163;52.306;5.634;2023-07-02T06:59:19;10.27;;;4.18;;
60318;SDS011;46163;52.306;5.634;2023-07-02T07:01:49;10.85;;;3.55;;
60318;SDS011;46163;52.306;5.634;2023-07-02T07:04:15;8.98;;;3.70;;
60318;SDS011;46163;52.306;5.634;2023-07-02T07:06:41;11.30;;;4.43;;
60318;SDS011;46163;52.306;5.634;2023-07-02T07:09:08;8.10;;;3.85;;
60318;SDS011;46163;52.306;5.634;2023-07-02T07:11:34;11.77;;;4.35;;
60318;SDS011;46163;52.306;5.634;2023-07-02T07:14:02;10.93;;;4.38;;
60318;SDS011;46163;52.306;5.634;2023-07-02T07:16:28;9.02;;;3.90;;
60318;SDS011;46163;52.306;5.634;2023-07-02T07:18:53;7.45;;;3.35;;
60318;SDS011;46163;52.306;5.634;2023-07-02T07:21:19;7.15;;;3.55;;
60318;SDS011;46163;52.306;5.634;2023-07-02T07:23:44;7.20;;;3.60;;
60318;SDS011;46163;52.306;5.634;2023-07-02T07:26:10;7.20;;;3.05;;
60318;SDS011;46163;52.306;5.634;2023-07-02T07:28:36;6.57;;;3.22;;
60318;SDS011;46163;52.306;5.634;2023-07-02T07:31:04;5.35;;;2.92;;
60318;SDS011;46163;52.306;5.634;2023-07-02T07:35:55;6.80;;;3.53;;
60318;SDS011;46163;52.306;5.634;2023-07-02T07:38:20;5.63;;;3.20;;
60318;SDS011;46163;52.306;5.634;2023-07-02T07:40:46;9.07;;;3.70;;
60318;SDS011;46163;52.306;5.634;2023-07-02T07:43:11;7.13;;;3.55;;
60318;SDS011;46163;52.306;5.634;2023-07-02T07:45:37;6.80;;;3.35;;
60318;SDS011;46163;52.306;5.634;2023-07-02T07:48:03;7.07;;;3.33;;
60318;SDS011;46163;52.306;5.634;2023-07-02T07:50:34;6.65;;;3.28;;
60318;SDS011;46163;52.306;5.634;2023-07-02T07:52:59;6.38;;;3.50;;
60318;SDS011;46163;52.306;5.634;2023-07-02T07:55:25;5.30;;;2.80;;
60318;SDS011;46163;52.306;5.634;2023-07-02T07:57:50;7.38;;;3.28;;
60318;SDS011;46163;52.306;5.634;2023-07-02T08:00:16;8.73;;;3.42;;
60318;SDS011;46163;52.306;5.634;2023-07-02T08:02:42;7.82;;;4.05;;
60318;SDS011;46163;52.306;5.634;2023-07-02T08:05:08;8.00;;;3.42;;
60318;SDS011;46163;52.306;5.634;2023-07-02T08:07:34;6.25;;;2.90;;
60318;SDS011;46163;52.306;5.634;2023-07-02T08:10:00;7.15;;;3.25;;
60318;SDS011;46163;52.306;5.634;2023-07-02T08:12:27;6.60;;;3.38;;
60318;SDS011;46163;52.306;5.634;2023-07-02T08:14:54;7.85;;;3.58;;
60318;SDS011;46163;52.306;5.634;2023-07-02T08:17:20;6.15;;;3.05;;
60318;SDS011;46163;52.306;5.634;2023-07-02T08:19:46;6.53;;;3.08;;
60318;SDS011;46163;52.306;5.634;2023-07-02T08:22:12;8.25;;;3.38;;
60318;SDS011;46163;52.306;5.634;2023-07-02T08:24:38;6.82;;;3.40;;
60318;SDS011;46163;52.306;5.634;2023-07-02T08:27:03;6.63;;;3.28;;
60318;SDS011;46163;52.306;5.634;2023-07-02T08:29:30;5.60;;;2.70;;
60318;SDS011;46163;52.306;5.634;2023-07-02T08:31:55;5.68;;;2.83;;
60318;SDS011;46163;52.306;5.634;2023-07-02T08:34:21;5.40;;;3.05;;
60318;SDS011;46163;52.306;5.634;2023-07-02T08:36:47;7.03;;;3.47;;
60318;SDS011;46163;52.306;5.634;2023-07-02T08:39:12;5.95;;;3.08;;
60318;SDS011;46163;52.306;5.634;2023-07-02T08:41:42;6.87;;;3.27;;
60318;SDS011;46163;52.306;5.634;2023-07-02T08:44:09;9.02;;;3.65;;
60318;SDS011;46163;52.306;5.634;2023-07-02T08:46:37;6.45;;;3.30;;
60318;SDS011;46163;52.306;5.634;2023-07-02T08:49:02;5.88;;;3.15;;
60318;SDS011;46163;52.306;5.634;2023-07-02T08:51:28;5.72;;;3.28;;
60318;SDS011;46163;52.306;5.634;2023-07-02T08:53:54;7.57;;;3.42;;
60318;SDS011;46163;52.306;5.634;2023-07-02T08:56:20;6.72;;;3.38;;
60318;SDS011;46163;52.306;5.634;2023-07-02T08:58:45;5.32;;;3.30;;
60318;SDS011;46163;52.306;5.634;2023-07-02T09:01:12;7.28;;;3.28;;
60318;SDS011;46163;52.306;5.634;2023-07-02T09:06:05;5.50;;;3.27;;
60318;SDS011;46163;52.306;5.634;2023-07-02T09:08:32;5.00;;;3.35;;
60318;SDS011;46163;52.306;5.634;2023-07-02T09:11:33;7.15;;;3.53;;
60318;SDS011;46163;52.306;5.634;2023-07-02T09:13:51;4.70;;;3.08;;
60318;SDS011;46163;52.306;5.634;2023-07-02T09:18:55;6.78;;;3.63;;
60318;SDS011;46163;52.306;5.634;2023-07-02T09:24:19;6.13;;;3.03;;
60318;SDS011;46163;52.306;5.634;2023-07-02T09:26:46;8.63;;;3.92;;
60318;SDS011;46163;52.306;5.634;2023-07-02T09:29:16;6.10;;;3.47;;
60318;SDS011;46163;52.306;5.634;2023-07-02T09:31:44;9.93;;;3.42;;
60318;SDS011;46163;52.306;5.634;2023-07-02T09:34:11;7.40;;;3.38;;
60318;SDS011;46163;52.306;5.634;2023-07-02T09:36:37;6.55;;;3.03;;
60318;SDS011;46163;52.306;5.634;2023-07-02T09:39:17;7.25;;;3.35;;
60318;SDS011;46163;52.306;5.634;2023-07-02T09:41:45;8.43;;;3.25;;
60318;SDS011;46163;52.306;5.634;2023-07-02T09:44:14;8.65;;;3.42;;
60318;SDS011;46163;52.306;5.634;2023-07-02T09:46:52;7.88;;;2.85;;
60318;SDS011;46163;52.306;5.634;2023-07-02T09:49:33;5.55;;;2.70;;
60318;SDS011;46163;52.306;5.634;2023-07-02T09:52:04;5.90;;;2.80;;
60318;SDS011;46163;52.306;5.634;2023-07-02T09:54:30;6.68;;;2.63;;
60318;SDS011;46163;52.306;5.634;2023-07-02T09:56:57;4.82;;;2.65;;
60318;SDS011;46163;52.306;5.634;2023-07-02T09:59:24;7.75;;;3.20;;
60318;SDS011;46163;52.306;5.634;2023-07-02T10:01:49;5.68;;;2.83;;
60318;SDS011;46163;52.306;5.634;2023-07-02T10:04:17;5.20;;;2.65;;
60318;SDS011;46163;52.306;5.634;2023-07-02T10:06:46;4.35;;;2.35;;
60318;SDS011;46163;52.306;5.634;2023-07-02T10:09:16;5.55;;;2.80;;
60318;SDS011;46163;52.306;5.634;2023-07-02T10:11:42;3.85;;;2.33;;
60318;SDS011;46163;52.306;5.634;2023-07-02T10:14:08;7.75;;;2.92;;
60318;SDS011;46163;52.306;5.634;2023-07-02T10:16:34;6.82;;;2.80;;
60318;SDS011;46163;52.306;5.634;2023-07-02T10:19:09;6.38;;;2.55;;
60318;SDS011;46163;52.306;5.634;2023-07-02T10:21:35;6.07;;;2.63;;
60318;SDS011;46163;52.306;5.634;2023-07-02T10:24:11;6.15;;;2.80;;
60318;SDS011;46163;52.306;5.634;2023-07-02T10:26:55;4.78;;;2.30;;
60318;SDS011;46163;52.306;5.634;2023-07-02T10:29:22;4.90;;;2.65;;
60318;SDS011;46163;52.306;5.634;2023-07-02T10:31:51;6.13;;;2.47;;
60318;SDS011;46163;52.306;5.634;2023-07-02T10:37:13;7.78;;;2.60;;
60318;SDS011;46163;52.306;5.634;2023-07-02T10:39:38;4.57;;;2.38;;
60318;SDS011;46163;52.306;5.634;2023-07-02T10:42:05;5.10;;;2.28;;
60318;SDS011;46163;52.306;5.634;2023-07-02T10:44:32;5.15;;;2.20;;
60318;SDS011;46163;52.306;5.634;2023-07-02T10:46:57;4.82;;;2.00;;
60318;SDS011;46163;52.306;5.634;2023-07-02T10:49:29;4.72;;;2.15;;
60318;SDS011;46163;52.306;5.634;2023-07-02T10:52:00;4.30;;;2.33;;
60318;SDS011;46163;52.306;5.634;2023-07-02T10:54:26;7.82;;;2.97;;
60318;SDS011;46163;52.306;5.634;2023-07-02T10:57:03;5.30;;;2.22;;
60318;SDS011;46163;52.306;5.634;2023-07-02T10:59:29;5.63;;;2.45;;
60318;SDS011;46163;52.306;5.634;2023-07-02T11:01:55;3.95;;;2.13;;
60318;SDS011;46163;52.306;5.634;2023-07-02T11:04:23;4.97;;;2.00;;
60318;SDS011;46163;52.306;5.634;2023-07-02T11:06:49;3.80;;;2.10;;
60318;SDS011;46163;52.306;5.634;2023-07-02T11:09:17;6.38;;;2.20;;
60318;SDS011;46163;52.306;5.634;2023-07-02T11:11:53;6.05;;;2.20;;
60318;SDS011;46163;52.306;5.634;2023-07-02T11:14:29;4.32;;;2.08;;
60318;SDS011;46163;52.306;5.634;2023-07-02T11:17:05;3.80;;;2.38;;
60318;SDS011;46163;52.306;5.634;2023-07-02T11:19:32;4.43;;;2.25;;
60318;SDS011;46163;52.306;5.634;2023-07-02T11:21:58;4.05;;;2.08;;
60318;SDS011;46163;52.306;5.634;2023-07-02T11:24:28;3.67;;;2.13;;
60318;SDS011;46163;52.306;5.634;2023-07-02T11:27:01;4.20;;;2.65;;
60318;SDS011;46163;52.306;5.634;2023-07-02T11:29:29;4.07;;;2.33;;
60318;SDS011;46163;52.306;5.634;2023-07-02T11:32:04;5.45;;;2.30;;
60318;SDS011;46163;52.306;5.634;2023-07-02T11:34:34;3.80;;;2.40;;
60318;SDS011;46163;52.306;5.634;2023-07-02T11:37:00;4.80;;;2.78;;
60318;SDS011;46163;52.306;5.634;2023-07-02T11:39:29;4.78;;;2.35;;
60318;SDS011;46163;52.306;5.634;2023-07-02T11:41:55;4.35;;;2.40;;
60318;SDS011;46163;52.306;5.634;2023-07-02T11:44:20;3.20;;;2.15;;
60318;SDS011;46163;52.306;5.634;2023-07-02T11:46:46;4.90;;;2.50;;
60318;SDS011;46163;52.306;5.634;2023-07-02T11:49:12;5.38;;;2.30;;
60318;SDS011;46163;52.306;5.634;2023-07-02T11:51:39;4.95;;;2.95;;
60318;SDS011;46163;52.306;5.634;2023-07-02T11:54:05;4.90;;;2.85;;
60318;SDS011;46163;52.306;5.634;2023-07-02T11:56:31;4.20;;;2.55;;
60318;SDS011;46163;52.306;5.634;2023-07-02T11:58:57;5.78;;;2.72;;
60318;SDS011;46163;52.306;5.634;2023-07-02T12:01:23;6.32;;;2.63;;
60318;SDS011;46163;52.306;5.634;2023-07-02T12:03:48;5.38;;;2.60;;
60318;SDS011;46163;52.306;5.634;2023-07-02T12:06:14;5.10;;;2.80;;
60318;SDS011;46163;52.306;5.634;2023-07-02T12:08:39;4.50;;;2.75;;
60318;SDS011;46163;52.306;5.634;2023-07-02T12:11:06;5.38;;;2.90;;
60318;SDS011;46163;52.306;5.634;2023-07-02T12:13:34;7.22;;;2.72;;
60318;SDS011;46163;52.306;5.634;2023-07-02T12:16:01;7.60;;;2.70;;
60318;SDS011;46163;52.306;5.634;2023-07-02T12:18:27;3.53;;;2.55;;
60318;SDS011;46163;52.306;5.634;2023-07-02T12:20:52;4.63;;;2.67;;
60318;SDS011;46163;52.306;5.634;2023-07-02T12:23:18;4.82;;;2.70;;
60318;SDS011;46163;52.306;5.634;2023-07-02T12:25:43;4.55;;;2.70;;
60318;SDS011;46163;52.306;5.634;2023-07-02T12:28:09;3.35;;;2.50;;
60318;SDS011;46163;52.306;5.634;2023-07-02T12:30:35;4.47;;;2.65;;
60318;SDS011;46163;52.306;5.634;2023-07-02T12:33:00;4.53;;;2.97;;
60318;SDS011;46163;52.306;5.634;2023-07-02T12:35:26;6.78;;;3.08;;
60318;SDS011;46163;52.306;5.634;2023-07-02T12:37:51;5.13;;;2.92;;
60318;SDS011;46163;52.306;5.634;2023-07-02T12:40:18;4.60;;;2.65;;
60318;SDS011;46163;52.306;5.634;2023-07-02T12:42:47;9.25;;;3.00;;
60318;SDS011;46163;52.306;5.634;2023-07-02T12:45:15;4.45;;;2.70;;
60318;SDS011;46163;52.306;5.634;2023-07-02T12:47:41;6.43;;;2.90;;
60318;SDS011;46163;52.306;5.634;2023-07-02T12:50:07;3.67;;;2.40;;
60318;SDS011;46163;52.306;5.634;2023-07-02T12:52:33;4.15;;;2.65;;
60318;SDS011;46163;52.306;5.634;2023-07-02T12:54:59;6.13;;;2.55;;
60318;SDS011;46163;52.306;5.634;2023-07-02T12:57:25;5.63;;;2.47;;
60318;SDS011;46163;52.306;5.634;2023-07-02T12:59:54;5.53;;;2.38;;
60318;SDS011;46163;52.306;5.634;2023-07-02T13:02:20;4.38;;;2.50;;
60318;SDS011;46163;52.306;5.634;2023-07-02T13:04:51;4.68;;;2.60;;
60318;SDS011;46163;52.306;5.634;2023-07-02T13:07:17;4.50;;;2.63;;
60318;SDS011;46163;52.306;5.634;2023-07-02T13:09:42;7.18;;;2.67;;
60318;SDS011;46163;52.306;5.634;2023-07-02T13:12:09;4.47;;;2.40;;
60318;SDS011;46163;52.306;5.634;2023-07-02T13:14:35;4.93;;;2.40;;
60318;SDS011;46163;52.306;5.634;2023-07-02T13:17:01;4.95;;;2.70;;
60318;SDS011;46163;52.306;5.634;2023-07-02T13:19:30;5.55;;;2.63;;
60318;SDS011;46163;52.306;5.634;2023-07-02T13:21:56;5.13;;;2.47;;
60318;SDS011;46163;52.306;5.634;2023-07-02T13:24:21;5.32;;;2.72;;
60318;SDS011;46163;52.306;5.634;2023-07-02T13:26:47;3.92;;;2.53;;
60318;SDS011;46163;52.306;5.634;2023-07-02T13:29:13;6.38;;;2.65;;
60318;SDS011;46163;52.306;5.634;2023-07-02T13:31:39;6.93;;;2.55;;
60318;SDS011;46163;52.306;5.634;2023-07-02T13:34:05;4.03;;;2.30;;
60318;SDS011;46163;52.306;5.634;2023-07-02T13:36:31;4.35;;;2.60;;
60318;SDS011;46163;52.306;5.634;2023-07-02T13:38:56;4.25;;;2.20;;
60318;SDS011;46163;52.306;5.634;2023-07-02T13:41:22;4.47;;;2.50;;
60318;SDS011;46163;52.306;5.634;2023-07-02T13:43:47;5.72;;;2.88;;
60318;SDS011;46163;52.306;5.634;2023-07-02T13:46:13;5.00;;;2.70;;
60318;SDS011;46163;52.306;5.634;2023-07-02T13:48:38;4.80;;;2.58;;
60318;SDS011;46163;52.306;5.634;2023-07-02T13:51:04;6.53;;;2.60;;
60318;SDS011;46163;52.306;5.634;2023-07-02T13:53:30;6.20;;;2.95;;
60318;SDS011;46163;52.306;5.634;2023-07-02T13:55:56;4.47;;;2.60;;
60318;SDS011;46163;52.306;5.634;2023-07-02T13:58:22;4.72;;;2.70;;
60318;SDS011;46163;52.306;5.634;2023-07-02T14:00:48;5.70;;;2.70;;
60318;SDS011;46163;52.306;5.634;2023-07-02T14:03:13;5.43;;;2.63;;
60318;SDS011;46163;52.306;5.634;2023-07-02T14:05:38;5.35;;;2.97;;
60318;SDS011;46163;52.306;5.634;2023-07-02T14:08:04;7.15;;;2.80;;
60318;SDS011;46163;52.306;5.634;2023-07-02T14:10:29;6.45;;;2.75;;
60318;SDS011;46163;52.306;5.634;2023-07-02T14:12:55;7.18;;;2.75;;
60318;SDS011;46163;52.306;5.634;2023-07-02T14:15:20;5.93;;;2.95;;
60318;SDS011;46163;52.306;5.634;2023-07-02T14:17:46;6.28;;;2.90;;
60318;SDS011;46163;52.306;5.634;2023-07-02T14:20:14;5.47;;;2.97;;
60318;SDS011;46163;52.306;5.634;2023-07-02T14:22:39;7.55;;;3.05;;
60318;SDS011;46163;52.306;5.634;2023-07-02T14:25:05;7.40;;;3.28;;
60318;SDS011;46163;52.306;5.634;2023-07-02T14:27:31;6.10;;;3.03;;
60318;SDS011;46163;52.306;5.634;2023-07-02T14:29:59;7.85;;;3.30;;
60318;SDS011;46163;52.306;5.634;2023-07-02T14:32:27;9.77;;;3.58;;
60318;SDS011;46163;52.306;5.634;2023-07-02T14:34:54;4.90;;;3.00;;
60318;SDS011;46163;52.306;5.634;2023-07-02T14:37:19;5.13;;;3.00;;
60318;SDS011;46163;52.306;5.634;2023-07-02T14:39:46;7.03;;;3.05;;
60318;SDS011;46163;52.306;5.634;2023-07-02T14:42:11;14.10;;;2.92;;
60318;SDS011;46163;52.306;5.634;2023-07-02T14:44:37;6.07;;;3.20;;
60318;SDS011;46163;52.306;5.634;2023-07-02T14:47:02;5.10;;;3.20;;
60318;SDS011;46163;52.306;5.634;2023-07-02T14:49:28;6.20;;;3.10;;
60318;SDS011;46163;52.306;5.634;2023-07-02T14:51:56;6.25;;;2.80;;
60318;SDS011;46163;52.306;5.634;2023-07-02T14:54:21;6.15;;;3.70;;
60318;SDS011;46163;52.306;5.634;2023-07-02T14:56:47;4.75;;;3.30;;
60318;SDS011;46163;52.306;5.634;2023-07-02T14:59:12;6.22;;;3.00;;
60318;SDS011;46163;52.306;5.634;2023-07-02T15:01:39;5.47;;;3.17;;